sensor_id;sensor_type;location;lat;lon;timestamp;P1;durP1;ratioP1;P2;durP2;ratioP2
36747;SDS011;22716;51.556;5.080;2023-04-06T00:00:59;13.17;;;8.70;;
36747;SDS011;22716;51.556;5.080;2023-04-06T00:03:28;15.77;;;8.07;;
36747;SDS011;22716;51.556;5.080;2023-04-06T00:05:59;12.50;;;8.03;;
36747;SDS011;22716;51.556;5.080;2023-04-06T00:08:28;18.00;;;9.33;;
36747;SDS011;22716;51.556;5.080;2023-04-06T00:10:57;14.10;;;8.03;;
36747;SDS011;22716;51.556;5.080;2023-04-06T00:13:26;16.13;;;8.23;;
36747;SDS011;22716;51.556;5.080;2023-04-06T00:15:55;12.77;;;7.03;;
36747;SDS011;22716;51.556;5.080;2023-04-06T00:18:24;12.93;;;8.10;;
36747;SDS011;22716;51.556;5.080;2023-04-06T00:20:53;17.73;;;9.27;;
36747;SDS011;22716;51.556;5.080;2023-04-06T00:23:24;13.83;;;8.43;;
36747;SDS011;22716;51.556;5.080;2023-04-06T00:25:53;12.43;;;8.00;;
36747;SDS011;22716;51.556;5.080;2023-04-06T00:28:22;12.83;;;8.10;;
36747;SDS011;22716;51.556;5.080;2023-04-06T00:30:51;16.70;;;8.07;;
36747;SDS011;22716;51.556;5.080;2023-04-06T00:33:21;12.90;;;8.57;;
36747;SDS011;22716;51.556;5.080;2023-04-06T00:35:50;11.90;;;8.07;;
36747;SDS011;22716;51.556;5.080;2023-04-06T00:38:19;16.40;;;8.73;;
36747;SDS011;22716;51.556;5.080;2023-04-06T00:40:52;16.47;;;9.00;;
36747;SDS011;22716;51.556;5.080;2023-04-06T00:43:22;14.90;;;7.70;;
36747;SDS011;22716;51.556;5.080;2023-04-06T00:45:51;15.40;;;8.37;;
36747;SDS011;22716;51.556;5.080;2023-04-06T00:48:20;15.20;;;7.20;;
36747;SDS011;22716;51.556;5.080;2023-04-06T00:50:49;14.70;;;8.57;;
36747;SDS011;22716;51.556;5.080;2023-04-06T00:53:18;11.00;;;7.97;;
36747;SDS011;22716;51.556;5.080;2023-04-06T00:55:47;11.77;;;7.40;;
36747;SDS011;22716;51.556;5.080;2023-04-06T00:58:18;12.47;;;8.20;;
36747;SDS011;22716;51.556;5.080;2023-04-06T01:00:47;12.70;;;8.10;;
36747;SDS011;22716;51.556;5.080;2023-04-06T01:03:16;11.70;;;8.23;;
36747;SDS011;22716;51.556;5.080;2023-04-06T01:05:45;15.63;;;8.20;;
36747;SDS011;22716;51.556;5.080;2023-04-06T01:08:14;12.03;;;7.77;;
36747;SDS011;22716;51.556;5.080;2023-04-06T01:10:43;12.90;;;7.70;;
36747;SDS011;22716;51.556;5.080;2023-04-06T01:13:12;21.10;;;9.50;;
36747;SDS011;22716;51.556;5.080;2023-04-06T01:15:44;12.00;;;7.97;;
36747;SDS011;22716;51.556;5.080;2023-04-06T01:18:14;12.03;;;8.30;;
36747;SDS011;22716;51.556;5.080;2023-04-06T01:20:43;14.03;;;7.43;;
36747;SDS011;22716;51.556;5.080;2023-04-06T01:23:14;11.47;;;8.13;;
36747;SDS011;22716;51.556;5.080;2023-04-06T01:25:43;11.73;;;7.80;;
36747;SDS011;22716;51.556;5.080;2023-04-06T01:28:12;14.57;;;8.57;;
36747;SDS011;22716;51.556;5.080;2023-04-06T01:30:41;18.80;;;9.13;;
36747;SDS011;22716;51.556;5.080;2023-04-06T01:33:10;11.93;;;8.30;;
36747;SDS011;22716;51.556;5.080;2023-04-06T01:35:39;10.70;;;8.03;;
36747;SDS011;22716;51.556;5.080;2023-04-06T01:38:08;12.97;;;8.43;;
36747;SDS011;22716;51.556;5.080;2023-04-06T01:40:39;14.80;;;8.23;;
36747;SDS011;22716;51.556;5.080;2023-04-06T01:43:08;13.53;;;9.00;;
36747;SDS011;22716;51.556;5.080;2023-04-06T01:45:37;12.10;;;8.47;;
36747;SDS011;22716;51.556;5.080;2023-04-06T01:48:06;14.47;;;9.07;;
36747;SDS011;22716;51.556;5.080;2023-04-06T01:50:35;13.20;;;8.33;;
36747;SDS011;22716;51.556;5.080;2023-04-06T01:53:04;14.27;;;8.20;;
36747;SDS011;22716;51.556;5.080;2023-04-06T01:55:33;12.90;;;8.27;;
36747;SDS011;22716;51.556;5.080;2023-04-06T01:58:05;16.90;;;8.50;;
36747;SDS011;22716;51.556;5.080;2023-04-06T02:00:34;14.57;;;8.23;;
36747;SDS011;22716;51.556;5.080;2023-04-06T02:03:03;11.13;;;8.13;;
36747;SDS011;22716;51.556;5.080;2023-04-06T02:05:32;12.70;;;8.40;;
36747;SDS011;22716;51.556;5.080;2023-04-06T02:08:03;18.83;;;9.83;;
36747;SDS011;22716;51.556;5.080;2023-04-06T02:10:33;20.13;;;9.63;;
36747;SDS011;22716;51.556;5.080;2023-04-06T02:13:05;17.70;;;8.83;;
36747;SDS011;22716;51.556;5.080;2023-04-06T02:15:34;19.63;;;9.17;;
36747;SDS011;22716;51.556;5.080;2023-04-06T02:18:03;16.23;;;8.90;;
36747;SDS011;22716;51.556;5.080;2023-04-06T02:20:32;15.33;;;8.77;;
36747;SDS011;22716;51.556;5.080;2023-04-06T02:23:00;13.03;;;8.63;;
36747;SDS011;22716;51.556;5.080;2023-04-06T02:25:29;18.03;;;9.50;;
36747;SDS011;22716;51.556;5.080;2023-04-06T02:27:58;18.10;;;9.83;;
36747;SDS011;22716;51.556;5.080;2023-04-06T02:30:30;18.10;;;9.20;;
36747;SDS011;22716;51.556;5.080;2023-04-06T02:32:59;16.27;;;9.27;;
36747;SDS011;22716;51.556;5.080;2023-04-06T02:35:28;14.80;;;8.87;;
36747;SDS011;22716;51.556;5.080;2023-04-06T02:37:58;15.40;;;9.60;;
36747;SDS011;22716;51.556;5.080;2023-04-06T02:40:27;17.90;;;10.10;;
36747;SDS011;22716;51.556;5.080;2023-04-06T02:42:56;15.27;;;9.90;;
36747;SDS011;22716;51.556;5.080;2023-04-06T02:45:24;14.97;;;9.00;;
36747;SDS011;22716;51.556;5.080;2023-04-06T02:47:56;16.33;;;8.77;;
36747;SDS011;22716;51.556;5.080;2023-04-06T02:50:24;14.73;;;9.70;;
36747;SDS011;22716;51.556;5.080;2023-04-06T02:52:53;16.23;;;10.20;;
36747;SDS011;22716;51.556;5.080;2023-04-06T02:55:22;19.47;;;10.20;;
36747;SDS011;22716;51.556;5.080;2023-04-06T02:57:51;15.97;;;10.30;;
36747;SDS011;22716;51.556;5.080;2023-04-06T03:00:20;14.47;;;9.03;;
36747;SDS011;22716;51.556;5.080;2023-04-06T03:02:49;16.40;;;9.77;;
36747;SDS011;22716;51.556;5.080;2023-04-06T03:05:20;14.93;;;9.77;;
36747;SDS011;22716;51.556;5.080;2023-04-06T03:07:49;16.67;;;9.90;;
36747;SDS011;22716;51.556;5.080;2023-04-06T03:10:18;19.90;;;10.53;;
36747;SDS011;22716;51.556;5.080;2023-04-06T03:12:46;23.57;;;9.77;;
36747;SDS011;22716;51.556;5.080;2023-04-06T03:15:15;17.73;;;9.30;;
36747;SDS011;22716;51.556;5.080;2023-04-06T03:17:44;17.53;;;10.23;;
36747;SDS011;22716;51.556;5.080;2023-04-06T03:20:13;16.90;;;10.37;;
36747;SDS011;22716;51.556;5.080;2023-04-06T03:22:45;16.03;;;10.43;;
36747;SDS011;22716;51.556;5.080;2023-04-06T03:25:14;19.27;;;10.67;;
36747;SDS011;22716;51.556;5.080;2023-04-06T03:27:43;18.90;;;11.47;;
36747;SDS011;22716;51.556;5.080;2023-04-06T03:30:12;17.90;;;10.47;;
36747;SDS011;22716;51.556;5.080;2023-04-06T03:32:42;16.83;;;9.90;;
36747;SDS011;22716;51.556;5.080;2023-04-06T03:35:11;15.10;;;9.77;;
36747;SDS011;22716;51.556;5.080;2023-04-06T03:37:40;17.80;;;10.20;;
36747;SDS011;22716;51.556;5.080;2023-04-06T03:40:12;15.10;;;9.50;;
36747;SDS011;22716;51.556;5.080;2023-04-06T03:42:41;14.63;;;8.60;;
36747;SDS011;22716;51.556;5.080;2023-04-06T03:45:10;17.33;;;10.47;;
36747;SDS011;22716;51.556;5.080;2023-04-06T03:47:39;14.43;;;10.17;;
36747;SDS011;22716;51.556;5.080;2023-04-06T03:50:08;17.10;;;9.30;;
36747;SDS011;22716;51.556;5.080;2023-04-06T03:52:38;21.50;;;9.70;;
36747;SDS011;22716;51.556;5.080;2023-04-06T03:55:08;18.10;;;9.73;;
36747;SDS011;22716;51.556;5.080;2023-04-06T03:57:39;15.83;;;10.40;;
36747;SDS011;22716;51.556;5.080;2023-04-06T04:00:09;15.73;;;10.03;;
36747;SDS011;22716;51.556;5.080;2023-04-06T04:02:40;19.03;;;10.27;;
36747;SDS011;22716;51.556;5.080;2023-04-06T04:05:09;16.67;;;10.70;;
36747;SDS011;22716;51.556;5.080;2023-04-06T04:07:38;20.30;;;10.67;;
36747;SDS011;22716;51.556;5.080;2023-04-06T04:10:07;22.83;;;10.10;;
36747;SDS011;22716;51.556;5.080;2023-04-06T04:12:40;19.87;;;11.63;;
36747;SDS011;22716;51.556;5.080;2023-04-06T04:15:08;15.33;;;9.87;;
36747;SDS011;22716;51.556;5.080;2023-04-06T04:17:38;15.90;;;9.83;;
36747;SDS011;22716;51.556;5.080;2023-04-06T04:20:07;17.47;;;10.90;;
36747;SDS011;22716;51.556;5.080;2023-04-06T04:22:37;19.60;;;9.43;;
36747;SDS011;22716;51.556;5.080;2023-04-06T04:25:06;18.53;;;10.73;;
36747;SDS011;22716;51.556;5.080;2023-04-06T04:27:36;16.37;;;9.03;;
36747;SDS011;22716;51.556;5.080;2023-04-06T04:30:09;17.50;;;9.50;;
36747;SDS011;22716;51.556;5.080;2023-04-06T04:32:38;19.53;;;9.53;;
36747;SDS011;22716;51.556;5.080;2023-04-06T04:35:08;20.77;;;10.53;;
36747;SDS011;22716;51.556;5.080;2023-04-06T04:37:38;17.47;;;10.13;;
36747;SDS011;22716;51.556;5.080;2023-04-06T04:40:09;17.80;;;10.57;;
36747;SDS011;22716;51.556;5.080;2023-04-06T04:42:39;15.87;;;10.20;;
36747;SDS011;22716;51.556;5.080;2023-04-06T04:45:11;16.73;;;9.33;;
36747;SDS011;22716;51.556;5.080;2023-04-06T04:47:40;20.97;;;11.27;;
36747;SDS011;22716;51.556;5.080;2023-04-06T04:50:09;19.97;;;10.83;;
36747;SDS011;22716;51.556;5.080;2023-04-06T04:52:38;16.97;;;10.60;;
36747;SDS011;22716;51.556;5.080;2023-04-06T04:55:07;17.97;;;9.93;;
36747;SDS011;22716;51.556;5.080;2023-04-06T04:57:36;17.87;;;10.57;;
36747;SDS011;22716;51.556;5.080;2023-04-06T05:00:06;14.97;;;9.67;;
36747;SDS011;22716;51.556;5.080;2023-04-06T05:02:38;16.00;;;9.97;;
36747;SDS011;22716;51.556;5.080;2023-04-06T05:05:08;19.30;;;9.87;;
36747;SDS011;22716;51.556;5.080;2023-04-06T05:07:36;24.43;;;10.13;;
36747;SDS011;22716;51.556;5.080;2023-04-06T05:10:06;18.83;;;10.20;;
36747;SDS011;22716;51.556;5.080;2023-04-06T05:12:36;15.13;;;9.63;;
36747;SDS011;22716;51.556;5.080;2023-04-06T05:15:06;20.27;;;11.10;;
36747;SDS011;22716;51.556;5.080;2023-04-06T05:17:36;17.13;;;10.23;;
36747;SDS011;22716;51.556;5.080;2023-04-06T05:20:08;16.37;;;10.10;;
36747;SDS011;22716;51.556;5.080;2023-04-06T05:22:37;17.63;;;10.37;;
36747;SDS011;22716;51.556;5.080;2023-04-06T05:25:07;18.73;;;10.80;;
36747;SDS011;22716;51.556;5.080;2023-04-06T05:27:36;17.60;;;10.47;;
36747;SDS011;22716;51.556;5.080;2023-04-06T05:30:06;15.23;;;8.70;;
36747;SDS011;22716;51.556;5.080;2023-04-06T05:32:39;15.60;;;9.60;;
36747;SDS011;22716;51.556;5.080;2023-04-06T05:35:09;23.33;;;11.10;;
36747;SDS011;22716;51.556;5.080;2023-04-06T05:37:38;22.40;;;10.03;;
36747;SDS011;22716;51.556;5.080;2023-04-06T05:40:10;23.03;;;10.80;;
36747;SDS011;22716;51.556;5.080;2023-04-06T05:42:39;19.90;;;10.70;;
36747;SDS011;22716;51.556;5.080;2023-04-06T05:45:09;18.87;;;9.60;;
36747;SDS011;22716;51.556;5.080;2023-04-06T05:47:44;19.13;;;10.33;;
36747;SDS011;22716;51.556;5.080;2023-04-06T05:50:14;21.77;;;10.93;;
36747;SDS011;22716;51.556;5.080;2023-04-06T05:52:43;22.70;;;11.13;;
36747;SDS011;22716;51.556;5.080;2023-04-06T05:55:12;22.10;;;9.80;;
36747;SDS011;22716;51.556;5.080;2023-04-06T05:57:41;19.83;;;11.27;;
36747;SDS011;22716;51.556;5.080;2023-04-06T06:00:10;15.63;;;9.57;;
36747;SDS011;22716;51.556;5.080;2023-04-06T06:02:40;17.47;;;10.23;;
36747;SDS011;22716;51.556;5.080;2023-04-06T06:05:12;17.50;;;10.07;;
36747;SDS011;22716;51.556;5.080;2023-04-06T06:07:41;20.63;;;9.97;;
36747;SDS011;22716;51.556;5.080;2023-04-06T06:10:10;16.03;;;10.30;;
36747;SDS011;22716;51.556;5.080;2023-04-06T06:12:40;16.13;;;10.40;;
36747;SDS011;22716;51.556;5.080;2023-04-06T06:15:09;14.87;;;10.10;;
36747;SDS011;22716;51.556;5.080;2023-04-06T06:17:39;18.27;;;10.70;;
36747;SDS011;22716;51.556;5.080;2023-04-06T06:20:11;21.60;;;11.83;;
36747;SDS011;22716;51.556;5.080;2023-04-06T06:22:41;19.60;;;10.73;;
36747;SDS011;22716;51.556;5.080;2023-04-06T06:25:10;24.03;;;11.93;;
36747;SDS011;22716;51.556;5.080;2023-04-06T06:27:39;23.23;;;11.73;;
36747;SDS011;22716;51.556;5.080;2023-04-06T06:30:09;18.67;;;11.40;;
36747;SDS011;22716;51.556;5.080;2023-04-06T06:32:38;22.13;;;10.80;;
36747;SDS011;22716;51.556;5.080;2023-04-06T06:35:08;25.57;;;12.07;;
36747;SDS011;22716;51.556;5.080;2023-04-06T06:37:39;17.20;;;10.63;;
36747;SDS011;22716;51.556;5.080;2023-04-06T06:40:09;16.97;;;11.63;;
36747;SDS011;22716;51.556;5.080;2023-04-06T06:42:41;20.33;;;11.40;;
36747;SDS011;22716;51.556;5.080;2023-04-06T06:45:10;18.60;;;10.43;;
36747;SDS011;22716;51.556;5.080;2023-04-06T06:47:39;23.63;;;10.87;;
36747;SDS011;22716;51.556;5.080;2023-04-06T06:50:08;23.53;;;11.53;;
36747;SDS011;22716;51.556;5.080;2023-04-06T06:52:39;19.40;;;11.00;;
36747;SDS011;22716;51.556;5.080;2023-04-06T06:55:09;20.57;;;11.37;;
36747;SDS011;22716;51.556;5.080;2023-04-06T06:57:39;17.77;;;12.20;;
36747;SDS011;22716;51.556;5.080;2023-04-06T07:00:08;21.03;;;11.70;;
36747;SDS011;22716;51.556;5.080;2023-04-06T07:02:38;18.90;;;11.30;;
36747;SDS011;22716;51.556;5.080;2023-04-06T07:05:09;21.10;;;12.33;;
36747;SDS011;22716;51.556;5.080;2023-04-06T07:07:41;23.37;;;11.63;;
36747;SDS011;22716;51.556;5.080;2023-04-06T07:10:10;20.23;;;12.77;;
36747;SDS011;22716;51.556;5.080;2023-04-06T07:12:39;24.43;;;11.43;;
36747;SDS011;22716;51.556;5.080;2023-04-06T07:15:08;27.17;;;12.83;;
36747;SDS011;22716;51.556;5.080;2023-04-06T07:17:38;23.47;;;11.03;;
36747;SDS011;22716;51.556;5.080;2023-04-06T07:20:07;21.33;;;10.60;;
36747;SDS011;22716;51.556;5.080;2023-04-06T07:22:41;18.73;;;11.03;;
36747;SDS011;22716;51.556;5.080;2023-04-06T07:25:11;28.33;;;11.85;;
36747;SDS011;22716;51.556;5.080;2023-04-06T07:27:40;20.60;;;11.50;;
36747;SDS011;22716;51.556;5.080;2023-04-06T07:30:10;18.23;;;12.33;;
36747;SDS011;22716;51.556;5.080;2023-04-06T07:32:39;16.40;;;10.13;;
36747;SDS011;22716;51.556;5.080;2023-04-06T07:35:08;21.07;;;10.87;;
36747;SDS011;22716;51.556;5.080;2023-04-06T07:37:40;18.77;;;11.20;;
36747;SDS011;22716;51.556;5.080;2023-04-06T07:40:09;23.00;;;10.80;;
36747;SDS011;22716;51.556;5.080;2023-04-06T07:42:39;19.33;;;10.63;;
36747;SDS011;22716;51.556;5.080;2023-04-06T07:45:08;18.10;;;10.93;;
36747;SDS011;22716;51.556;5.080;2023-04-06T07:47:37;20.00;;;11.17;;
36747;SDS011;22716;51.556;5.080;2023-04-06T07:50:07;16.97;;;10.33;;
36747;SDS011;22716;51.556;5.080;2023-04-06T07:52:40;22.97;;;10.63;;
36747;SDS011;22716;51.556;5.080;2023-04-06T07:55:08;18.47;;;11.30;;
36747;SDS011;22716;51.556;5.080;2023-04-06T07:57:37;17.97;;;10.63;;
36747;SDS011;22716;51.556;5.080;2023-04-06T08:00:07;19.43;;;10.87;;
36747;SDS011;22716;51.556;5.080;2023-04-06T08:02:37;24.00;;;11.83;;
36747;SDS011;22716;51.556;5.080;2023-04-06T08:05:06;20.50;;;10.83;;
36747;SDS011;22716;51.556;5.080;2023-04-06T08:07:36;23.47;;;11.00;;
36747;SDS011;22716;51.556;5.080;2023-04-06T08:10:09;20.87;;;12.73;;
36747;SDS011;22716;51.556;5.080;2023-04-06T08:12:38;23.53;;;12.47;;
36747;SDS011;22716;51.556;5.080;2023-04-06T08:15:07;23.30;;;12.53;;
36747;SDS011;22716;51.556;5.080;2023-04-06T08:17:37;18.97;;;11.57;;
36747;SDS011;22716;51.556;5.080;2023-04-06T08:20:07;24.00;;;12.40;;
36747;SDS011;22716;51.556;5.080;2023-04-06T08:22:36;17.13;;;10.73;;
36747;SDS011;22716;51.556;5.080;2023-04-06T08:25:08;19.67;;;10.87;;
36747;SDS011;22716;51.556;5.080;2023-04-06T08:27:37;22.60;;;11.60;;
36747;SDS011;22716;51.556;5.080;2023-04-06T08:30:06;20.83;;;12.67;;
36747;SDS011;22716;51.556;5.080;2023-04-06T08:32:36;19.57;;;11.47;;
36747;SDS011;22716;51.556;5.080;2023-04-06T08:35:07;17.50;;;10.97;;
36747;SDS011;22716;51.556;5.080;2023-04-06T08:37:36;18.83;;;12.23;;
36747;SDS011;22716;51.556;5.080;2023-04-06T08:40:09;20.17;;;12.50;;
36747;SDS011;22716;51.556;5.080;2023-04-06T08:42:39;21.23;;;12.67;;
36747;SDS011;22716;51.556;5.080;2023-04-06T08:45:12;17.20;;;11.80;;
36747;SDS011;22716;51.556;5.080;2023-04-06T08:47:49;22.73;;;11.90;;
36747;SDS011;22716;51.556;5.080;2023-04-06T08:50:20;19.60;;;11.93;;
36747;SDS011;22716;51.556;5.080;2023-04-06T08:52:52;20.20;;;12.40;;
36747;SDS011;22716;51.556;5.080;2023-04-06T08:55:23;19.33;;;13.43;;
36747;SDS011;22716;51.556;5.080;2023-04-06T08:57:53;19.73;;;11.40;;
36747;SDS011;22716;51.556;5.080;2023-04-06T09:00:23;21.23;;;12.50;;
36747;SDS011;22716;51.556;5.080;2023-04-06T09:02:54;21.53;;;13.17;;
36747;SDS011;22716;51.556;5.080;2023-04-06T09:05:25;20.13;;;13.50;;
36747;SDS011;22716;51.556;5.080;2023-04-06T09:07:54;21.37;;;11.60;;
36747;SDS011;22716;51.556;5.080;2023-04-06T09:10:26;17.27;;;10.80;;
36747;SDS011;22716;51.556;5.080;2023-04-06T09:13:02;16.57;;;11.03;;
36747;SDS011;22716;51.556;5.080;2023-04-06T09:15:34;16.67;;;10.43;;
36747;SDS011;22716;51.556;5.080;2023-04-06T09:18:03;16.97;;;11.00;;
36747;SDS011;22716;51.556;5.080;2023-04-06T09:20:33;16.67;;;11.17;;
36747;SDS011;22716;51.556;5.080;2023-04-06T09:23:02;15.97;;;10.77;;
36747;SDS011;22716;51.556;5.080;2023-04-06T09:25:34;17.03;;;10.07;;
36747;SDS011;22716;51.556;5.080;2023-04-06T09:28:04;18.67;;;9.93;;
36747;SDS011;22716;51.556;5.080;2023-04-06T09:30:34;17.77;;;11.00;;
36747;SDS011;22716;51.556;5.080;2023-04-06T09:33:03;14.07;;;8.90;;
36747;SDS011;22716;51.556;5.080;2023-04-06T09:35:32;13.40;;;8.87;;
36747;SDS011;22716;51.556;5.080;2023-04-06T09:38:10;12.77;;;8.13;;
36747;SDS011;22716;51.556;5.080;2023-04-06T09:40:50;12.60;;;7.63;;
36747;SDS011;22716;51.556;5.080;2023-04-06T09:43:25;13.00;;;7.40;;
36747;SDS011;22716;51.556;5.080;2023-04-06T09:45:55;12.83;;;7.47;;
36747;SDS011;22716;51.556;5.080;2023-04-06T09:48:24;20.20;;;7.27;;
36747;SDS011;22716;51.556;5.080;2023-04-06T09:50:56;10.77;;;7.13;;
36747;SDS011;22716;51.556;5.080;2023-04-06T09:53:31;13.23;;;7.80;;
36747;SDS011;22716;51.556;5.080;2023-04-06T09:56:09;14.47;;;7.33;;
36747;SDS011;22716;51.556;5.080;2023-04-06T09:58:44;12.80;;;8.10;;
36747;SDS011;22716;51.556;5.080;2023-04-06T10:01:18;13.35;;;7.70;;
36747;SDS011;22716;51.556;5.080;2023-04-06T10:03:50;10.37;;;6.73;;
36747;SDS011;22716;51.556;5.080;2023-04-06T10:06:24;9.60;;;6.37;;
36747;SDS011;22716;51.556;5.080;2023-04-06T10:08:58;13.33;;;7.30;;
36747;SDS011;22716;51.556;5.080;2023-04-06T10:11:31;11.23;;;6.23;;
36747;SDS011;22716;51.556;5.080;2023-04-06T10:14:01;10.63;;;6.77;;
36747;SDS011;22716;51.556;5.080;2023-04-06T10:16:30;12.70;;;6.93;;
36747;SDS011;22716;51.556;5.080;2023-04-06T10:19:01;12.67;;;7.43;;
36747;SDS011;22716;51.556;5.080;2023-04-06T10:21:35;14.43;;;7.57;;
36747;SDS011;22716;51.556;5.080;2023-04-06T10:24:07;15.37;;;7.50;;
36747;SDS011;22716;51.556;5.080;2023-04-06T10:26:41;11.23;;;7.27;;
36747;SDS011;22716;51.556;5.080;2023-04-06T10:29:10;11.27;;;7.50;;
36747;SDS011;22716;51.556;5.080;2023-04-06T10:31:40;13.20;;;9.30;;
36747;SDS011;22716;51.556;5.080;2023-04-06T10:34:11;12.40;;;7.27;;
36747;SDS011;22716;51.556;5.080;2023-04-06T10:36:40;11.93;;;7.50;;
36747;SDS011;22716;51.556;5.080;2023-04-06T10:39:09;11.97;;;8.10;;
36747;SDS011;22716;51.556;5.080;2023-04-06T10:41:43;13.10;;;7.60;;
36747;SDS011;22716;51.556;5.080;2023-04-06T10:44:17;11.50;;;7.10;;
36747;SDS011;22716;51.556;5.080;2023-04-06T10:46:54;11.40;;;8.23;;
36747;SDS011;22716;51.556;5.080;2023-04-06T10:49:25;9.60;;;7.07;;
36747;SDS011;22716;51.556;5.080;2023-04-06T10:51:55;13.00;;;7.27;;
36747;SDS011;22716;51.556;5.080;2023-04-06T10:54:25;11.80;;;6.70;;
36747;SDS011;22716;51.556;5.080;2023-04-06T10:57:00;11.33;;;7.20;;
36747;SDS011;22716;51.556;5.080;2023-04-06T10:59:29;12.00;;;7.00;;
36747;SDS011;22716;51.556;5.080;2023-04-06T11:01:58;11.10;;;6.77;;
36747;SDS011;22716;51.556;5.080;2023-04-06T11:04:27;11.87;;;7.00;;
36747;SDS011;22716;51.556;5.080;2023-04-06T11:06:56;11.70;;;6.80;;
36747;SDS011;22716;51.556;5.080;2023-04-06T11:09:25;9.30;;;6.57;;
36747;SDS011;22716;51.556;5.080;2023-04-06T11:11:54;11.53;;;7.00;;
36747;SDS011;22716;51.556;5.080;2023-04-06T11:14:26;14.00;;;7.57;;
36747;SDS011;22716;51.556;5.080;2023-04-06T11:16:55;13.37;;;6.37;;
36747;SDS011;22716;51.556;5.080;2023-04-06T11:19:24;11.63;;;6.80;;
36747;SDS011;22716;51.556;5.080;2023-04-06T11:21:53;9.63;;;6.17;;
36747;SDS011;22716;51.556;5.080;2023-04-06T11:24:24;12.37;;;7.77;;
36747;SDS011;22716;51.556;5.080;2023-04-06T11:26:53;11.00;;;7.63;;
36747;SDS011;22716;51.556;5.080;2023-04-06T11:29:24;10.03;;;7.10;;
36747;SDS011;22716;51.556;5.080;2023-04-06T11:31:58;10.82;;;7.75;;
36747;SDS011;22716;51.556;5.080;2023-04-06T11:34:28;13.37;;;7.63;;
36747;SDS011;22716;51.556;5.080;2023-04-06T11:36:59;12.60;;;8.50;;
36747;SDS011;22716;51.556;5.080;2023-04-06T11:39:31;10.33;;;7.90;;
36747;SDS011;22716;51.556;5.080;2023-04-06T11:42:05;11.47;;;8.23;;
36747;SDS011;22716;51.556;5.080;2023-04-06T11:44:38;12.30;;;7.80;;
36747;SDS011;22716;51.556;5.080;2023-04-06T11:47:11;14.23;;;8.90;;
36747;SDS011;22716;51.556;5.080;2023-04-06T11:49:41;12.20;;;7.70;;
36747;SDS011;22716;51.556;5.080;2023-04-06T11:52:17;12.20;;;8.27;;
36747;SDS011;22716;51.556;5.080;2023-04-06T11:54:47;9.00;;;6.57;;
36747;SDS011;22716;51.556;5.080;2023-04-06T11:57:19;12.23;;;8.27;;
36747;SDS011;22716;51.556;5.080;2023-04-06T11:59:52;15.83;;;8.17;;
36747;SDS011;22716;51.556;5.080;2023-04-06T12:02:21;11.20;;;7.53;;
36747;SDS011;22716;51.556;5.080;2023-04-06T12:04:50;10.20;;;8.30;;
36747;SDS011;22716;51.556;5.080;2023-04-06T12:07:19;12.33;;;8.97;;
36747;SDS011;22716;51.556;5.080;2023-04-06T12:09:47;13.97;;;9.03;;
36747;SDS011;22716;51.556;5.080;2023-04-06T12:12:16;11.13;;;8.13;;
36747;SDS011;22716;51.556;5.080;2023-04-06T12:14:45;9.97;;;7.73;;
36747;SDS011;22716;51.556;5.080;2023-04-06T12:17:17;12.27;;;8.27;;
36747;SDS011;22716;51.556;5.080;2023-04-06T12:19:46;14.80;;;8.43;;
36747;SDS011;22716;51.556;5.080;2023-04-06T12:22:17;10.97;;;8.87;;
36747;SDS011;22716;51.556;5.080;2023-04-06T12:24:46;10.80;;;7.73;;
36747;SDS011;22716;51.556;5.080;2023-04-06T12:27:15;12.93;;;8.13;;
36747;SDS011;22716;51.556;5.080;2023-04-06T12:29:44;13.33;;;8.80;;
36747;SDS011;22716;51.556;5.080;2023-04-06T12:32:13;12.80;;;8.67;;
36747;SDS011;22716;51.556;5.080;2023-04-06T12:34:44;13.47;;;8.67;;
36747;SDS011;22716;51.556;5.080;2023-04-06T12:37:13;12.93;;;8.70;;
36747;SDS011;22716;51.556;5.080;2023-04-06T12:39:42;12.47;;;8.27;;
36747;SDS011;22716;51.556;5.080;2023-04-06T12:42:15;13.93;;;8.20;;
36747;SDS011;22716;51.556;5.080;2023-04-06T12:44:44;14.03;;;9.70;;
36747;SDS011;22716;51.556;5.080;2023-04-06T12:47:13;13.73;;;8.07;;
36747;SDS011;22716;51.556;5.080;2023-04-06T12:49:45;15.00;;;8.90;;
36747;SDS011;22716;51.556;5.080;2023-04-06T12:52:14;13.27;;;8.63;;
36747;SDS011;22716;51.556;5.080;2023-04-06T12:54:43;12.87;;;9.30;;
36747;SDS011;22716;51.556;5.080;2023-04-06T12:57:11;14.93;;;8.50;;
36747;SDS011;22716;51.556;5.080;2023-04-06T12:59:42;12.23;;;8.30;;
36747;SDS011;22716;51.556;5.080;2023-04-06T13:02:12;15.00;;;8.97;;
36747;SDS011;22716;51.556;5.080;2023-04-06T13:04:41;11.73;;;7.90;;
36747;SDS011;22716;51.556;5.080;2023-04-06T13:07:13;14.13;;;8.43;;
36747;SDS011;22716;51.556;5.080;2023-04-06T13:09:42;13.20;;;9.03;;
36747;SDS011;22716;51.556;5.080;2023-04-06T13:12:12;14.63;;;9.30;;
36747;SDS011;22716;51.556;5.080;2023-04-06T13:14:41;13.63;;;9.13;;
36747;SDS011;22716;51.556;5.080;2023-04-06T13:17:12;15.53;;;8.87;;
36747;SDS011;22716;51.556;5.080;2023-04-06T13:19:42;13.93;;;9.00;;
36747;SDS011;22716;51.556;5.080;2023-04-06T13:22:14;13.80;;;8.87;;
36747;SDS011;22716;51.556;5.080;2023-04-06T13:24:43;12.40;;;8.93;;
36747;SDS011;22716;51.556;5.080;2023-04-06T13:27:12;15.03;;;9.50;;
36747;SDS011;22716;51.556;5.080;2023-04-06T13:29:40;12.87;;;8.30;;
36747;SDS011;22716;51.556;5.080;2023-04-06T13:32:09;11.27;;;8.50;;
36747;SDS011;22716;51.556;5.080;2023-04-06T13:34:38;11.40;;;8.20;;
36747;SDS011;22716;51.556;5.080;2023-04-06T13:37:10;16.87;;;9.73;;
36747;SDS011;22716;51.556;5.080;2023-04-06T13:39:43;17.00;;;10.23;;
36747;SDS011;22716;51.556;5.080;2023-04-06T13:42:12;15.90;;;9.67;;
36747;SDS011;22716;51.556;5.080;2023-04-06T13:44:41;13.20;;;9.47;;
36747;SDS011;22716;51.556;5.080;2023-04-06T13:47:12;13.33;;;9.53;;
36747;SDS011;22716;51.556;5.080;2023-04-06T13:49:41;12.97;;;8.57;;
36747;SDS011;22716;51.556;5.080;2023-04-06T13:52:10;13.93;;;9.00;;
36747;SDS011;22716;51.556;5.080;2023-04-06T13:54:41;14.37;;;9.87;;
36747;SDS011;22716;51.556;5.080;2023-04-06T13:57:10;13.47;;;9.23;;
36747;SDS011;22716;51.556;5.080;2023-04-06T13:59:39;15.60;;;10.03;;
36747;SDS011;22716;51.556;5.080;2023-04-06T14:02:10;15.50;;;9.73;;
36747;SDS011;22716;51.556;5.080;2023-04-06T14:04:38;13.83;;;9.93;;
36747;SDS011;22716;51.556;5.080;2023-04-06T14:07:07;16.67;;;9.93;;
36747;SDS011;22716;51.556;5.080;2023-04-06T14:09:36;13.10;;;8.87;;
36747;SDS011;22716;51.556;5.080;2023-04-06T14:12:07;15.47;;;10.00;;
36747;SDS011;22716;51.556;5.080;2023-04-06T14:14:37;15.30;;;9.47;;
36747;SDS011;22716;51.556;5.080;2023-04-06T14:17:05;18.47;;;9.87;;
36747;SDS011;22716;51.556;5.080;2023-04-06T14:19:34;13.77;;;9.33;;
36747;SDS011;22716;51.556;5.080;2023-04-06T14:22:03;13.47;;;10.30;;
36747;SDS011;22716;51.556;5.080;2023-04-06T14:24:32;15.23;;;9.40;;
36747;SDS011;22716;51.556;5.080;2023-04-06T14:27:02;14.40;;;10.17;;
36747;SDS011;22716;51.556;5.080;2023-04-06T14:29:33;14.90;;;9.57;;
36747;SDS011;22716;51.556;5.080;2023-04-06T14:32:02;16.43;;;10.67;;
36747;SDS011;22716;51.556;5.080;2023-04-06T14:34:30;14.90;;;10.67;;
36747;SDS011;22716;51.556;5.080;2023-04-06T14:36:59;16.07;;;10.97;;
36747;SDS011;22716;51.556;5.080;2023-04-06T14:39:28;14.53;;;9.57;;
36747;SDS011;22716;51.556;5.080;2023-04-06T14:41:57;15.20;;;10.73;;
36747;SDS011;22716;51.556;5.080;2023-04-06T14:44:25;13.37;;;9.80;;